createdAt,value
2022-12-06T06:03:47.721Z,6.18
2022-12-06T06:08:50.458Z,6.22
2022-12-06T06:13:54.505Z,5.85
2022-12-06T06:18:56.765Z,5.38
2022-12-06T06:23:59.213Z,6.13
2022-12-06T06:29:01.438Z,6.47
2022-12-06T06:34:03.810Z,6.25
2022-12-06T06:39:06.008Z,6.22
2022-12-06T06:44:08.249Z,6.50
2022-12-06T06:49:11.863Z,6.05
2022-12-06T06:54:15.404Z,6.57
2022-12-06T06:59:17.721Z,5.80
2022-12-06T07:04:20.000Z,5.68
2022-12-06T07:09:22.203Z,6.10
2022-12-06T07:14:24.503Z,6.63
2022-12-06T07:19:26.802Z,6.75
2022-12-06T07:24:29.022Z,6.60
2022-12-06T07:29:31.215Z,6.13
2022-12-06T07:34:33.461Z,6.65
2022-12-06T07:39:35.646Z,6.18
2022-12-06T07:45:01.306Z,5.97
2022-12-06T07:50:06.160Z,6.15
2022-12-06T07:55:09.982Z,6.47
2022-12-06T08:00:15.570Z,5.70
2022-12-06T08:05:17.847Z,5.45
2022-12-06T08:10:20.088Z,4.95
2022-12-06T08:15:22.342Z,4.95
2022-12-06T08:20:24.597Z,5.10
2022-12-06T08:25:26.779Z,5.05
2022-12-06T08:30:29.304Z,5.55
2022-12-06T08:35:31.660Z,5.00
2022-12-06T08:40:33.905Z,5.40
2022-12-06T08:45:36.452Z,5.10
2022-12-06T08:50:39.007Z,4.93
2022-12-06T08:55:41.634Z,4.90
2022-12-06T09:00:43.873Z,5.88
2022-12-06T09:05:46.084Z,5.55
2022-12-06T09:10:48.280Z,6.10
2022-12-06T09:15:50.520Z,6.43
2022-12-06T09:20:52.763Z,6.07
2022-12-06T09:25:55.072Z,5.88
2022-12-06T09:30:57.904Z,5.68
2022-12-06T09:36:05.839Z,5.68
2022-12-06T09:41:50.940Z,5.90
2022-12-06T09:47:02.196Z,5.65
2022-12-06T09:52:41.624Z,5.50
2022-12-06T09:57:56.175Z,5.50
2022-12-06T10:02:58.385Z,5.20
2022-12-06T10:08:49.121Z,5.20
2022-12-06T10:14:13.885Z,4.40
2022-12-06T10:19:41.583Z,4.78
2022-12-06T10:25:05.567Z,4.63
2022-12-06T10:30:11.037Z,4.32
2022-12-06T10:35:19.348Z,3.97
2022-12-06T10:40:34.238Z,4.07
2022-12-06T10:46:24.061Z,4.45
2022-12-06T10:51:34.546Z,3.58
2022-12-06T10:56:41.737Z,4.00
2022-12-06T11:01:45.821Z,4.10
2022-12-06T11:06:54.947Z,4.40
2022-12-06T11:11:58.019Z,4.97
2022-12-06T11:17:05.134Z,4.88
2022-12-06T11:22:35.261Z,4.43
2022-12-06T11:27:44.938Z,4.80
2022-12-06T11:32:50.405Z,4.72
2022-12-06T11:38:02.035Z,4.88
2022-12-06T11:43:08.988Z,4.82
2022-12-06T11:48:18.006Z,4.10
2022-12-06T11:53:27.014Z,4.13
2022-12-06T11:59:01.529Z,3.40
2022-12-06T12:04:32.290Z,4.00
2022-12-06T12:10:00.588Z,4.00
2022-12-06T12:15:03.125Z,4.03
2022-12-06T12:20:08.547Z,3.25
2022-12-06T12:25:36.978Z,3.45
2022-12-06T12:30:52.779Z,3.08
2022-12-06T12:36:02.124Z,3.13
2022-12-06T12:41:23.430Z,3.13
2022-12-06T12:46:26.134Z,2.90
2022-12-06T12:51:36.911Z,3.60
2022-12-06T12:56:39.465Z,3.13
2022-12-06T13:02:03.316Z,3.40
2022-12-06T13:07:31.830Z,3.38
2022-12-06T13:12:44.845Z,3.30
2022-12-06T13:18:00.962Z,3.63
2022-12-06T13:23:09.200Z,3.35
2022-12-06T13:28:19.021Z,3.75
2022-12-06T13:33:27.233Z,3.50
2022-12-06T13:38:32.342Z,3.50
2022-12-06T13:43:39.560Z,3.00
2022-12-06T13:49:05.618Z,3.90
2022-12-06T13:54:13.862Z,4.45
2022-12-06T13:59:16.048Z,4.57
2022-12-06T14:04:24.061Z,4.63
2022-12-06T14:09:28.848Z,4.78
2022-12-06T14:14:31.015Z,5.32
2022-12-06T14:19:45.492Z,5.38
2022-12-06T14:25:15.383Z,5.32
2022-12-06T14:30:26.381Z,6.30
2022-12-06T14:35:36.993Z,5.68
2022-12-06T14:41:01.087Z,5.40
2022-12-06T14:46:10.668Z,5.38
2022-12-06T14:51:23.220Z,6.13
2022-12-06T14:56:32.710Z,6.28
2022-12-06T15:01:36.410Z,6.15
2022-12-06T15:06:55.208Z,5.45
2022-12-06T15:12:42.406Z,6.30
2022-12-06T15:17:45.128Z,5.95
2022-12-06T15:22:47.390Z,5.97
2022-12-06T15:27:49.661Z,7.75
2022-12-06T15:32:51.897Z,6.28
2022-12-06T15:37:54.084Z,6.45
2022-12-06T15:43:02.008Z,6.40
2022-12-06T15:48:04.989Z,6.80
2022-12-06T15:53:10.346Z,5.53
2022-12-06T15:58:12.552Z,6.40
2022-12-06T16:03:14.929Z,6.53
2022-12-06T16:08:17.256Z,6.28
2022-12-06T16:13:23.348Z,6.45
2022-12-06T16:18:25.647Z,6.13
2022-12-06T16:24:18.228Z,6.60
2022-12-06T16:29:20.694Z,7.30
2022-12-06T16:34:23.140Z,7.65
2022-12-06T16:39:25.735Z,6.95
2022-12-06T16:44:28.137Z,7.05
2022-12-06T16:49:48.300Z,7.28
2022-12-06T16:54:50.838Z,7.37
2022-12-06T16:59:53.125Z,7.18
2022-12-06T17:04:56.653Z,7.55
2022-12-06T17:09:59.485Z,7.10
2022-12-06T17:15:01.902Z,7.35
2022-12-06T17:20:05.882Z,6.70
2022-12-06T17:25:09.913Z,6.43
2022-12-06T17:30:17.714Z,6.90
2022-12-06T17:35:19.927Z,6.03
2022-12-06T17:40:22.129Z,6.03
2022-12-06T17:45:25.707Z,5.97
2022-12-06T17:50:27.879Z,5.82
2022-12-06T17:55:30.208Z,6.10
2022-12-06T18:00:32.394Z,6.22
2022-12-06T18:05:34.627Z,6.43
2022-12-06T18:10:36.800Z,7.93
2022-12-06T18:15:39.093Z,7.43
2022-12-06T18:20:43.130Z,7.07
2022-12-06T18:25:45.337Z,7.18
2022-12-06T18:30:47.563Z,8.77
2022-12-06T18:35:53.570Z,8.88
2022-12-06T18:41:08.485Z,9.77
2022-12-06T18:46:21.969Z,10.18
2022-12-06T18:51:27.366Z,10.23
2022-12-06T18:56:32.400Z,11.70
2022-12-06T19:01:37.087Z,11.82
2022-12-06T19:06:39.393Z,11.43
2022-12-06T19:11:44.281Z,11.07
2022-12-06T19:16:49.338Z,11.63
2022-12-06T19:21:54.266Z,12.23
2022-12-06T19:27:00.007Z,12.57
2022-12-06T19:32:02.534Z,12.18
2022-12-06T19:37:04.870Z,11.93
2022-12-06T19:42:25.710Z,12.32
2022-12-06T19:47:27.910Z,12.60
2022-12-06T19:52:31.132Z,14.23
2022-12-06T19:57:33.551Z,13.20
2022-12-06T20:02:36.099Z,14.23
2022-12-06T20:07:38.387Z,13.75
2022-12-06T20:12:40.639Z,14.93
2022-12-06T20:17:42.987Z,14.32
2022-12-06T20:22:45.235Z,13.38
2022-12-06T20:27:53.366Z,13.52
2022-12-06T20:32:55.671Z,13.00
2022-12-06T20:37:57.903Z,13.38
2022-12-06T20:43:00.130Z,14.07
2022-12-06T20:48:02.315Z,13.30
2022-12-06T20:53:04.588Z,13.75
2022-12-06T20:58:06.790Z,13.10
2022-12-06T21:03:09.168Z,13.18
2022-12-06T21:08:11.663Z,13.45
2022-12-06T21:13:13.939Z,12.73
2022-12-06T21:18:19.823Z,11.93
2022-12-06T21:23:22.362Z,11.60
2022-12-06T21:28:24.634Z,12.52
2022-12-06T21:33:27.005Z,12.05
2022-12-06T21:38:32.710Z,12.38
2022-12-06T21:43:36.223Z,11.00
2022-12-06T21:48:39.254Z,11.60
2022-12-06T21:53:41.600Z,11.90
2022-12-06T21:58:44.350Z,13.38
2022-12-06T22:03:51.202Z,10.73
2022-12-06T22:09:02.718Z,10.38
2022-12-06T22:14:05.575Z,9.98
2022-12-06T22:19:07.818Z,9.38
2022-12-06T22:24:10.198Z,9.90
2022-12-06T22:29:12.709Z,9.48
2022-12-06T22:34:14.947Z,9.10
2022-12-06T22:39:18.563Z,9.27
2022-12-06T22:44:20.875Z,7.97
